Domov               UVHVVR             MKGP            O straneh              
ZDRAVSTVENO VARSTVO RASTLIN
  MREŽA AGROMET. POSTAJ
 ► PROGNOSTIČNA OBVESTILA
AGROMETEOROLOŠKI PODATKI -
ARSO
OBVLADOVANJE TVEGANJ ZARADI
NEUGODNIH VREMENSKIH RAZMER
  ► NARAVNE NESREČE
  ► SUŠA/MOČA
  ► NAMAKANJE
  ► ŽLED (gozdarstvo)
KARTOGRAFSKI PRIKAZI
SPLETNE POVEZAVE
PROJEKTI IN PUBLIKACIJE

AGROMETEOROLOŠKA MREŽA: VREMENSKE POSTAJE IN FENOLOŠKA OPAZOVANJA

Pregled podatkov za lokacijo Podbrezje, meteorološka postaja 855704

Pregled senzorjev na lokaciji

ID Ime Zadnja
vrednost
Datum
zadnje
spremembe
Tip
senzorja
4023 Omočenost lista (U) 0 U 19.9.2018 05:00 A730WET
4024 Padavine (mm) 0 mm 19.9.2018 05:00 Rain-O-Matic
4022 Relativna vlaga 2 m (% RH) 98,56 % RH 19.9.2018 05:00 50YA
4021 Temperatura 2 m (°C) 13,88 °C 19.9.2018 05:00 50YA

Pregled podatkov zadnjih 24 ur

Zap.
št.
Datum in čas Podbrezje
Omočenost
lista
Padavine Relativna
vlaga
2
m
Temperatura
2
m
1 19.9.2018 05:30
2 19.9.2018 05:00
3 19.9.2018 04:30
4 19.9.2018 04:00
5 19.9.2018 03:30 0 0 98 14,4
6 19.9.2018 03:00 0 0 98,6 14,3
7 19.9.2018 02:30 0 0 98,4 14,3
8 19.9.2018 02:00 0 0 98,5 14,7
9 19.9.2018 01:30 0 0 98,7 14,9
10 19.9.2018 01:00 0 0 98,1 15,1
11 19.9.2018 00:30 0 0 98,2 15,4
12 19.9.2018 00:00 0 0 99 15,5
13 18.9.2018 23:30 0 0 98,1 16
14 18.9.2018 23:00 0 0 98 16,3
15 18.9.2018 22:30 0 0 98 16,6
16 18.9.2018 22:00 0 0 97,7 16,9
17 18.9.2018 21:30 0 0 96,3 17,4
18 18.9.2018 21:00 0 0 95,5 17,8
19 18.9.2018 20:30 0 0 97,5 18
20 18.9.2018 20:00 0 0 99,9 18,2
21 18.9.2018 19:30 0 0 100 18,2
22 18.9.2018 19:00 0 0 100 18,5
23 18.9.2018 18:30 0 4,6 90,2 19,9
24 18.9.2018 18:00 0 0 69,4 22,6
25 18.9.2018 17:30 0 0 66,2 23,5
26 18.9.2018 17:00 0 0 62 24,1
27 18.9.2018 16:30 0 0 57 25,2
28 18.9.2018 16:00 0 0 55,8 25,6
29 18.9.2018 15:30 0 0 55,4 25,6
30 18.9.2018 15:00 0 0 54,3 25,7
31 18.9.2018 14:30 0 0 54,4 25,7
32 18.9.2018 14:00 0 0 53,7 25,7
33 18.9.2018 13:30 0 0 53,4 25,3
34 18.9.2018 13:00 0 0 55,6 25,2
35 18.9.2018 12:30 0 0 58,4 24,7
36 18.9.2018 12:00 0 0 62,5 24,4
37 18.9.2018 11:30 0 0 62,3 24,1
38 18.9.2018 11:00 0 0 63,7 23,7
39 18.9.2018 10:30 0 0 67,9 23,4
40 18.9.2018 10:00 0 0 69,2 22,9
41 18.9.2018 09:30 0 0 70,6 22,3
42 18.9.2018 09:00 0 0 74,3 21,2
43 18.9.2018 08:30 0 0 79,3 20,2
44 18.9.2018 08:00 0 0 86,6 18,3
45 18.9.2018 07:30 0 0 87,9 17,7
46 18.9.2018 07:00 0 0 95 15,5
47 18.9.2018 06:30 0 0 97,3 14,5
48 18.9.2018 06:00 0 0 96,2 14,4
© 2011 Ministrstvo za kmetijstvo, gozdarstvo in prehrano. Vse pravice pridržane.